sensor_id;sensor_type;location;lat;lon;timestamp;temperature;humidity
1429;DHT22;708;51.442;7.016;2023-05-17T00:01:21;10.20;1.00
1429;DHT22;708;51.442;7.016;2023-05-17T00:03:48;10.20;1.00
1429;DHT22;708;51.442;7.016;2023-05-17T00:06:16;10.30;1.00
1429;DHT22;708;51.442;7.016;2023-05-17T00:08:43;10.30;1.00
1429;DHT22;708;51.442;7.016;2023-05-17T00:11:10;10.20;1.00
1429;DHT22;708;51.442;7.016;2023-05-17T00:13:37;10.20;1.00
1429;DHT22;708;51.442;7.016;2023-05-17T00:16:06;10.20;1.00
1429;DHT22;708;51.442;7.016;2023-05-17T00:18:33;10.20;1.00
1429;DHT22;708;51.442;7.016;2023-05-17T00:21:00;10.20;1.00
1429;DHT22;708;51.442;7.016;2023-05-17T00:23:28;10.10;1.00
1429;DHT22;708;51.442;7.016;2023-05-17T00:25:55;10.20;1.00
1429;DHT22;708;51.442;7.016;2023-05-17T00:28:21;10.20;1.00
1429;DHT22;708;51.442;7.016;2023-05-17T00:30:48;10.20;1.00
1429;DHT22;708;51.442;7.016;2023-05-17T00:33:15;10.10;1.00
1429;DHT22;708;51.442;7.016;2023-05-17T00:35:42;10.20;1.00
1429;DHT22;708;51.442;7.016;2023-05-17T00:38:09;10.20;1.00
1429;DHT22;708;51.442;7.016;2023-05-17T00:40:37;10.10;1.00
1429;DHT22;708;51.442;7.016;2023-05-17T00:43:04;10.10;1.00
1429;DHT22;708;51.442;7.016;2023-05-17T00:45:30;10.10;1.00
1429;DHT22;708;51.442;7.016;2023-05-17T00:47:57;10.10;1.00
1429;DHT22;708;51.442;7.016;2023-05-17T00:50:24;10.10;1.00
1429;DHT22;708;51.442;7.016;2023-05-17T00:52:51;10.10;1.00
1429;DHT22;708;51.442;7.016;2023-05-17T00:55:18;10.10;1.00
1429;DHT22;708;51.442;7.016;2023-05-17T00:57:47;10.10;1.00
1429;DHT22;708;51.442;7.016;2023-05-17T01:00:14;10.00;1.00
1429;DHT22;708;51.442;7.016;2023-05-17T01:02:41;10.00;1.60
1429;DHT22;708;51.442;7.016;2023-05-17T01:05:11;10.00;6.20
1429;DHT22;708;51.442;7.016;2023-05-17T01:07:38;10.00;9.20
1429;DHT22;708;51.442;7.016;2023-05-17T01:10:06;10.00;8.00
1429;DHT22;708;51.442;7.016;2023-05-17T01:15:24;9.90;14.70
1429;DHT22;708;51.442;7.016;2023-05-17T01:17:56;9.90;18.40
1429;DHT22;708;51.442;7.016;2023-05-17T01:20:28;9.90;16.90
1429;DHT22;708;51.442;7.016;2023-05-17T01:23:12;9.90;19.80
1429;DHT22;708;51.442;7.016;2023-05-17T01:25:53;9.80;27.70
1429;DHT22;708;51.442;7.016;2023-05-17T01:28:22;9.80;26.60
1429;DHT22;708;51.442;7.016;2023-05-17T01:30:51;9.80;27.90
1429;DHT22;708;51.442;7.016;2023-05-17T01:33:19;9.80;29.40
1429;DHT22;708;51.442;7.016;2023-05-17T01:35:45;9.80;32.20
1429;DHT22;708;51.442;7.016;2023-05-17T01:38:12;9.80;34.20
1429;DHT22;708;51.442;7.016;2023-05-17T01:40:43;9.80;35.00
1429;DHT22;708;51.442;7.016;2023-05-17T01:43:20;9.80;36.70
1429;DHT22;708;51.442;7.016;2023-05-17T01:45:59;9.70;41.20
1429;DHT22;708;51.442;7.016;2023-05-17T01:48:31;9.70;46.70
1429;DHT22;708;51.442;7.016;2023-05-17T01:51:00;9.70;50.50
1429;DHT22;708;51.442;7.016;2023-05-17T01:53:29;9.70;51.30
1429;DHT22;708;51.442;7.016;2023-05-17T01:56:02;9.70;55.40
1429;DHT22;708;51.442;7.016;2023-05-17T01:58:31;9.70;58.00
1429;DHT22;708;51.442;7.016;2023-05-17T02:01:02;9.60;59.30
1429;DHT22;708;51.442;7.016;2023-05-17T02:03:29;9.60;63.00
1429;DHT22;708;51.442;7.016;2023-05-17T02:05:56;9.60;60.10
1429;DHT22;708;51.442;7.016;2023-05-17T02:08:23;9.60;66.40
1429;DHT22;708;51.442;7.016;2023-05-17T02:10:50;9.60;74.90
1429;DHT22;708;51.442;7.016;2023-05-17T02:13:16;9.60;81.30
1429;DHT22;708;51.442;7.016;2023-05-17T02:15:43;9.60;82.10
1429;DHT22;708;51.442;7.016;2023-05-17T02:18:11;9.60;83.30
1429;DHT22;708;51.442;7.016;2023-05-17T02:20:38;9.60;85.30
1429;DHT22;708;51.442;7.016;2023-05-17T02:23:05;9.50;89.60
1429;DHT22;708;51.442;7.016;2023-05-17T02:25:32;9.50;91.80
1429;DHT22;708;51.442;7.016;2023-05-17T02:27:59;9.50;94.30
1429;DHT22;708;51.442;7.016;2023-05-17T02:30:25;9.50;98.70
1429;DHT22;708;51.442;7.016;2023-05-17T02:32:52;9.40;99.90
1429;DHT22;708;51.442;7.016;2023-05-17T02:35:22;9.40;99.90
1429;DHT22;708;51.442;7.016;2023-05-17T02:37:49;9.50;99.90
1429;DHT22;708;51.442;7.016;2023-05-17T02:40:16;9.50;99.90
1429;DHT22;708;51.442;7.016;2023-05-17T02:42:43;9.50;99.90
1429;DHT22;708;51.442;7.016;2023-05-17T02:45:10;9.50;99.90
1429;DHT22;708;51.442;7.016;2023-05-17T02:47:37;9.40;99.90
1429;DHT22;708;51.442;7.016;2023-05-17T02:50:04;9.40;99.90
1429;DHT22;708;51.442;7.016;2023-05-17T02:52:32;9.40;99.90
1429;DHT22;708;51.442;7.016;2023-05-17T02:54:59;9.40;99.90
1429;DHT22;708;51.442;7.016;2023-05-17T02:57:26;9.40;99.90
1429;DHT22;708;51.442;7.016;2023-05-17T02:59:53;9.40;99.90
1429;DHT22;708;51.442;7.016;2023-05-17T03:02:20;9.40;99.90
1429;DHT22;708;51.442;7.016;2023-05-17T03:04:46;9.50;99.90
1429;DHT22;708;51.442;7.016;2023-05-17T03:07:13;9.50;99.90
1429;DHT22;708;51.442;7.016;2023-05-17T03:09:41;9.60;99.90
1429;DHT22;708;51.442;7.016;2023-05-17T03:12:08;9.60;99.90
1429;DHT22;708;51.442;7.016;2023-05-17T03:14:35;9.70;99.90
1429;DHT22;708;51.442;7.016;2023-05-17T03:17:02;9.80;99.90
1429;DHT22;708;51.442;7.016;2023-05-17T03:19:29;9.90;99.90
1429;DHT22;708;51.442;7.016;2023-05-17T03:21:56;9.90;99.90
1429;DHT22;708;51.442;7.016;2023-05-17T03:24:22;10.00;99.90
1429;DHT22;708;51.442;7.016;2023-05-17T03:26:51;10.10;99.90
1429;DHT22;708;51.442;7.016;2023-05-17T03:29:17;10.20;99.90
1429;DHT22;708;51.442;7.016;2023-05-17T03:31:44;10.30;99.90
1429;DHT22;708;51.442;7.016;2023-05-17T03:34:11;10.40;99.90
1429;DHT22;708;51.442;7.016;2023-05-17T03:36:38;10.40;95.40
1429;DHT22;708;51.442;7.016;2023-05-17T03:39:05;10.60;87.90
1429;DHT22;708;51.442;7.016;2023-05-17T03:41:31;10.60;74.50
1429;DHT22;708;51.442;7.016;2023-05-17T03:44:00;10.70;67.80
1429;DHT22;708;51.442;7.016;2023-05-17T03:46:27;10.70;60.00
1429;DHT22;708;51.442;7.016;2023-05-17T03:48:53;10.70;60.60
1429;DHT22;708;51.442;7.016;2023-05-17T03:51:20;10.70;60.20
1429;DHT22;708;51.442;7.016;2023-05-17T03:53:49;10.80;57.90
1429;DHT22;708;51.442;7.016;2023-05-17T03:56:16;10.80;57.60
1429;DHT22;708;51.442;7.016;2023-05-17T03:58:43;10.90;53.70
1429;DHT22;708;51.442;7.016;2023-05-17T04:01:11;10.90;52.30
1429;DHT22;708;51.442;7.016;2023-05-17T04:03:38;11.00;49.90
1429;DHT22;708;51.442;7.016;2023-05-17T04:06:05;11.00;42.10
1429;DHT22;708;51.442;7.016;2023-05-17T04:08:32;11.10;34.20
1429;DHT22;708;51.442;7.016;2023-05-17T04:10:59;11.10;27.80
1429;DHT22;708;51.442;7.016;2023-05-17T04:13:34;11.20;26.60
1429;DHT22;708;51.442;7.016;2023-05-17T04:16:01;11.20;28.10
1429;DHT22;708;51.442;7.016;2023-05-17T04:18:29;11.30;27.00
1429;DHT22;708;51.442;7.016;2023-05-17T04:20:56;11.30;22.10
1429;DHT22;708;51.442;7.016;2023-05-17T04:23:23;11.30;16.50
1429;DHT22;708;51.442;7.016;2023-05-17T04:25:49;11.30;16.50
1429;DHT22;708;51.442;7.016;2023-05-17T04:28:17;11.30;17.90
1429;DHT22;708;51.442;7.016;2023-05-17T04:30:45;11.30;18.80
1429;DHT22;708;51.442;7.016;2023-05-17T04:33:12;11.30;20.30
1429;DHT22;708;51.442;7.016;2023-05-17T04:35:41;11.40;21.70
1429;DHT22;708;51.442;7.016;2023-05-17T04:38:08;11.40;20.00
1429;DHT22;708;51.442;7.016;2023-05-17T04:40:35;11.40;18.50
1429;DHT22;708;51.442;7.016;2023-05-17T04:43:02;11.40;18.10
1429;DHT22;708;51.442;7.016;2023-05-17T04:45:29;11.50;19.80
1429;DHT22;708;51.442;7.016;2023-05-17T04:47:57;11.60;15.90
1429;DHT22;708;51.442;7.016;2023-05-17T04:50:25;11.70;7.70
1429;DHT22;708;51.442;7.016;2023-05-17T04:52:53;11.80;3.50
1429;DHT22;708;51.442;7.016;2023-05-17T04:55:20;12.30;2.60
1429;DHT22;708;51.442;7.016;2023-05-17T04:57:47;12.90;1.00
1429;DHT22;708;51.442;7.016;2023-05-17T05:00:17;13.40;1.00
1429;DHT22;708;51.442;7.016;2023-05-17T05:02:45;14.10;1.00
1429;DHT22;708;51.442;7.016;2023-05-17T05:05:12;14.90;1.00
1429;DHT22;708;51.442;7.016;2023-05-17T05:07:39;15.40;99.90
1429;DHT22;708;51.442;7.016;2023-05-17T05:10:07;15.80;99.90
1429;DHT22;708;51.442;7.016;2023-05-17T05:12:34;16.10;92.90
1429;DHT22;708;51.442;7.016;2023-05-17T05:15:01;16.20;99.90
1429;DHT22;708;51.442;7.016;2023-05-17T05:17:29;16.00;1.00
1429;DHT22;708;51.442;7.016;2023-05-17T05:19:56;15.90;17.00
1429;DHT22;708;51.442;7.016;2023-05-17T05:22:23;16.50;1.00
1429;DHT22;708;51.442;7.016;2023-05-17T05:24:50;17.50;1.00
1429;DHT22;708;51.442;7.016;2023-05-17T05:27:18;18.50;99.90
1429;DHT22;708;51.442;7.016;2023-05-17T05:29:45;19.30;1.00
1429;DHT22;708;51.442;7.016;2023-05-17T05:32:12;19.50;99.90
1429;DHT22;708;51.442;7.016;2023-05-17T05:34:39;19.50;99.90
1429;DHT22;708;51.442;7.016;2023-05-17T05:37:06;20.20;99.90
1429;DHT22;708;51.442;7.016;2023-05-17T05:39:33;21.20;99.90
1429;DHT22;708;51.442;7.016;2023-05-17T05:44:29;22.70;88.00
1429;DHT22;708;51.442;7.016;2023-05-17T05:46:55;23.50;76.20
1429;DHT22;708;51.442;7.016;2023-05-17T05:49:22;24.10;59.00
1429;DHT22;708;51.442;7.016;2023-05-17T05:51:49;24.60;49.80
1429;DHT22;708;51.442;7.016;2023-05-17T05:54:16;25.00;41.20
1429;DHT22;708;51.442;7.016;2023-05-17T05:56:42;25.80;35.50
1429;DHT22;708;51.442;7.016;2023-05-17T05:59:09;26.40;31.70
1429;DHT22;708;51.442;7.016;2023-05-17T06:01:37;26.80;27.80
1429;DHT22;708;51.442;7.016;2023-05-17T06:04:05;27.40;24.00
1429;DHT22;708;51.442;7.016;2023-05-17T06:06:32;27.80;20.60
1429;DHT22;708;51.442;7.016;2023-05-17T06:11:26;28.40;11.10
1429;DHT22;708;51.442;7.016;2023-05-17T06:13:53;28.60;23.40
1429;DHT22;708;51.442;7.016;2023-05-17T06:16:20;27.90;13.10
1429;DHT22;708;51.442;7.016;2023-05-17T06:18:48;27.70;12.10
1429;DHT22;708;51.442;7.016;2023-05-17T06:21:15;26.60;10.80
1429;DHT22;708;51.442;7.016;2023-05-17T06:23:42;25.20;9.30
1429;DHT22;708;51.442;7.016;2023-05-17T06:26:09;23.30;8.20
1429;DHT22;708;51.442;7.016;2023-05-17T06:28:36;22.10;8.10
1429;DHT22;708;51.442;7.016;2023-05-17T06:31:03;20.80;8.90
1429;DHT22;708;51.442;7.016;2023-05-17T06:33:30;19.60;13.80
1429;DHT22;708;51.442;7.016;2023-05-17T06:35:58;18.60;39.10
1429;DHT22;708;51.442;7.016;2023-05-17T06:38:25;17.70;99.90
1429;DHT22;708;51.442;7.016;2023-05-17T06:40:52;17.10;99.90
1429;DHT22;708;51.442;7.016;2023-05-17T06:43:19;16.60;99.90
1429;DHT22;708;51.442;7.016;2023-05-17T06:45:46;16.20;1.00
1429;DHT22;708;51.442;7.016;2023-05-17T06:48:13;15.90;99.90
1429;DHT22;708;51.442;7.016;2023-05-17T06:50:40;15.70;1.00
1429;DHT22;708;51.442;7.016;2023-05-17T06:53:08;15.60;1.00
1429;DHT22;708;51.442;7.016;2023-05-17T06:55:35;15.50;1.00
1429;DHT22;708;51.442;7.016;2023-05-17T06:58:02;15.40;1.00
1429;DHT22;708;51.442;7.016;2023-05-17T07:00:29;15.40;1.00
1429;DHT22;708;51.442;7.016;2023-05-17T07:02:56;15.20;1.00
1429;DHT22;708;51.442;7.016;2023-05-17T07:05:23;15.00;1.00
1429;DHT22;708;51.442;7.016;2023-05-17T07:07:54;14.80;1.00
1429;DHT22;708;51.442;7.016;2023-05-17T07:10:23;14.70;1.00
1429;DHT22;708;51.442;7.016;2023-05-17T07:12:49;14.60;1.00
1429;DHT22;708;51.442;7.016;2023-05-17T07:15:16;14.40;1.00
1429;DHT22;708;51.442;7.016;2023-05-17T07:17:43;14.40;1.00
1429;DHT22;708;51.442;7.016;2023-05-17T07:20:11;14.30;1.00
1429;DHT22;708;51.442;7.016;2023-05-17T07:22:39;14.50;55.40
1429;DHT22;708;51.442;7.016;2023-05-17T07:25:07;16.20;1.00
1429;DHT22;708;51.442;7.016;2023-05-17T07:27:35;18.50;99.90
1429;DHT22;708;51.442;7.016;2023-05-17T07:30:03;20.80;99.90
1429;DHT22;708;51.442;7.016;2023-05-17T07:32:30;21.30;70.30
1429;DHT22;708;51.442;7.016;2023-05-17T07:34:57;20.90;52.70
1429;DHT22;708;51.442;7.016;2023-05-17T07:37:24;20.30;48.50
1429;DHT22;708;51.442;7.016;2023-05-17T07:39:51;19.90;46.00
1429;DHT22;708;51.442;7.016;2023-05-17T07:42:17;19.50;46.80
1429;DHT22;708;51.442;7.016;2023-05-17T07:44:46;20.80;49.20
1429;DHT22;708;51.442;7.016;2023-05-17T07:47:14;22.70;40.20
1429;DHT22;708;51.442;7.016;2023-05-17T07:49:41;24.50;30.00
1429;DHT22;708;51.442;7.016;2023-05-17T07:52:08;26.10;22.50
1429;DHT22;708;51.442;7.016;2023-05-17T07:54:34;27.30;16.00
1429;DHT22;708;51.442;7.016;2023-05-17T07:57:01;27.60;11.90
1429;DHT22;708;51.442;7.016;2023-05-17T07:59:28;27.90;10.10
1429;DHT22;708;51.442;7.016;2023-05-17T08:01:56;27.90;8.00
1429;DHT22;708;51.442;7.016;2023-05-17T08:04:23;28.10;7.70
1429;DHT22;708;51.442;7.016;2023-05-17T08:06:50;28.90;6.30
1429;DHT22;708;51.442;7.016;2023-05-17T08:09:16;29.70;5.10
1429;DHT22;708;51.442;7.016;2023-05-17T08:11:44;30.40;3.90
1429;DHT22;708;51.442;7.016;2023-05-17T08:14:12;30.70;1.60
1429;DHT22;708;51.442;7.016;2023-05-17T08:16:39;31.70;1.00
1429;DHT22;708;51.442;7.016;2023-05-17T08:19:10;31.60;1.00
1429;DHT22;708;51.442;7.016;2023-05-17T08:21:38;31.20;1.00
1429;DHT22;708;51.442;7.016;2023-05-17T08:24:05;29.60;1.00
1429;DHT22;708;51.442;7.016;2023-05-17T08:26:32;27.60;1.00
1429;DHT22;708;51.442;7.016;2023-05-17T08:29:00;25.80;1.00
1429;DHT22;708;51.442;7.016;2023-05-17T08:31:27;24.60;1.00
1429;DHT22;708;51.442;7.016;2023-05-17T08:33:54;24.50;1.00
1429;DHT22;708;51.442;7.016;2023-05-17T08:36:25;24.10;1.00
1429;DHT22;708;51.442;7.016;2023-05-17T08:38:52;23.50;1.00
1429;DHT22;708;51.442;7.016;2023-05-17T08:41:19;23.10;1.00
1429;DHT22;708;51.442;7.016;2023-05-17T08:43:46;22.80;1.00
1429;DHT22;708;51.442;7.016;2023-05-17T08:46:14;22.60;1.00
1429;DHT22;708;51.442;7.016;2023-05-17T08:48:42;21.90;1.00
1429;DHT22;708;51.442;7.016;2023-05-17T08:51:11;21.60;1.00
1429;DHT22;708;51.442;7.016;2023-05-17T08:53:41;23.10;1.00
1429;DHT22;708;51.442;7.016;2023-05-17T08:56:11;23.50;1.00
1429;DHT22;708;51.442;7.016;2023-05-17T08:58:42;23.40;1.00
1429;DHT22;708;51.442;7.016;2023-05-17T09:01:09;23.30;1.00
1429;DHT22;708;51.442;7.016;2023-05-17T09:03:38;23.80;1.00
1429;DHT22;708;51.442;7.016;2023-05-17T09:06:07;25.10;1.00
1429;DHT22;708;51.442;7.016;2023-05-17T09:08:36;26.60;1.00
1429;DHT22;708;51.442;7.016;2023-05-17T09:11:07;27.20;1.00
1429;DHT22;708;51.442;7.016;2023-05-17T09:13:34;27.40;1.00
1429;DHT22;708;51.442;7.016;2023-05-17T09:16:00;28.00;1.00
1429;DHT22;708;51.442;7.016;2023-05-17T09:18:31;28.90;1.00
1429;DHT22;708;51.442;7.016;2023-05-17T09:21:01;29.40;1.00
1429;DHT22;708;51.442;7.016;2023-05-17T09:23:30;29.80;1.00
1429;DHT22;708;51.442;7.016;2023-05-17T09:26:03;30.30;1.00
1429;DHT22;708;51.442;7.016;2023-05-17T09:28:37;30.40;1.00
1429;DHT22;708;51.442;7.016;2023-05-17T09:31:05;30.10;1.00
1429;DHT22;708;51.442;7.016;2023-05-17T09:33:32;29.40;1.00
1429;DHT22;708;51.442;7.016;2023-05-17T09:36:00;29.60;1.00
1429;DHT22;708;51.442;7.016;2023-05-17T09:38:27;29.70;1.00
1429;DHT22;708;51.442;7.016;2023-05-17T09:40:53;30.20;1.00
1429;DHT22;708;51.442;7.016;2023-05-17T09:43:23;30.40;1.00
1429;DHT22;708;51.442;7.016;2023-05-17T09:45:55;29.90;1.00
1429;DHT22;708;51.442;7.016;2023-05-17T09:48:25;28.90;1.00
1429;DHT22;708;51.442;7.016;2023-05-17T09:50:53;27.90;1.00
1429;DHT22;708;51.442;7.016;2023-05-17T09:53:26;27.20;1.00
1429;DHT22;708;51.442;7.016;2023-05-17T09:55:55;26.20;1.00
1429;DHT22;708;51.442;7.016;2023-05-17T09:58:23;25.10;1.00
1429;DHT22;708;51.442;7.016;2023-05-17T10:00:52;25.20;1.00
1429;DHT22;708;51.442;7.016;2023-05-17T10:03:21;26.00;1.00
1429;DHT22;708;51.442;7.016;2023-05-17T10:05:50;26.40;1.00
1429;DHT22;708;51.442;7.016;2023-05-17T10:08:21;26.80;1.00
1429;DHT22;708;51.442;7.016;2023-05-17T10:10:48;26.40;1.00
1429;DHT22;708;51.442;7.016;2023-05-17T10:13:17;25.40;1.00
1429;DHT22;708;51.442;7.016;2023-05-17T10:15:47;25.70;1.00
1429;DHT22;708;51.442;7.016;2023-05-17T10:18:15;26.20;1.00
1429;DHT22;708;51.442;7.016;2023-05-17T10:20:46;26.30;1.00
1429;DHT22;708;51.442;7.016;2023-05-17T10:23:14;25.80;1.00
1429;DHT22;708;51.442;7.016;2023-05-17T10:25:42;24.80;1.00
1429;DHT22;708;51.442;7.016;2023-05-17T10:28:09;23.90;1.00
1429;DHT22;708;51.442;7.016;2023-05-17T10:30:36;23.70;1.00
1429;DHT22;708;51.442;7.016;2023-05-17T10:33:04;24.20;1.00
1429;DHT22;708;51.442;7.016;2023-05-17T10:35:32;24.30;1.00
1429;DHT22;708;51.442;7.016;2023-05-17T10:38:01;23.80;1.00
1429;DHT22;708;51.442;7.016;2023-05-17T10:40:29;23.10;1.00
1429;DHT22;708;51.442;7.016;2023-05-17T10:42:58;22.40;1.00
1429;DHT22;708;51.442;7.016;2023-05-17T10:45:25;21.80;1.00
1429;DHT22;708;51.442;7.016;2023-05-17T10:47:53;21.30;1.00
1429;DHT22;708;51.442;7.016;2023-05-17T10:50:21;20.90;1.00
1429;DHT22;708;51.442;7.016;2023-05-17T10:52:51;20.60;1.00
1429;DHT22;708;51.442;7.016;2023-05-17T10:55:22;20.50;1.00
1429;DHT22;708;51.442;7.016;2023-05-17T10:58:13;20.20;1.00
1429;DHT22;708;51.442;7.016;2023-05-17T11:00:42;20.00;1.00
1429;DHT22;708;51.442;7.016;2023-05-17T11:03:15;19.90;1.00
1429;DHT22;708;51.442;7.016;2023-05-17T11:05:44;19.80;1.00
1429;DHT22;708;51.442;7.016;2023-05-17T11:08:31;19.70;1.00
1429;DHT22;708;51.442;7.016;2023-05-17T11:11:10;19.60;1.00
1429;DHT22;708;51.442;7.016;2023-05-17T11:13:49;19.40;1.00
1429;DHT22;708;51.442;7.016;2023-05-17T11:16:21;19.30;1.00
1429;DHT22;708;51.442;7.016;2023-05-17T11:18:49;19.20;1.00
1429;DHT22;708;51.442;7.016;2023-05-17T11:21:17;19.20;1.00
1429;DHT22;708;51.442;7.016;2023-05-17T11:23:45;19.30;1.00
1429;DHT22;708;51.442;7.016;2023-05-17T11:26:20;19.20;1.00
1429;DHT22;708;51.442;7.016;2023-05-17T11:28:48;19.20;1.00
1429;DHT22;708;51.442;7.016;2023-05-17T11:31:15;19.10;1.00
1429;DHT22;708;51.442;7.016;2023-05-17T11:33:43;18.80;1.00
1429;DHT22;708;51.442;7.016;2023-05-17T11:36:17;18.60;1.00
1429;DHT22;708;51.442;7.016;2023-05-17T11:38:47;18.20;1.00
1429;DHT22;708;51.442;7.016;2023-05-17T11:41:20;17.80;1.00
1429;DHT22;708;51.442;7.016;2023-05-17T11:43:47;17.50;1.00
1429;DHT22;708;51.442;7.016;2023-05-17T11:46:19;17.30;1.00
1429;DHT22;708;51.442;7.016;2023-05-17T11:48:46;17.30;1.00
1429;DHT22;708;51.442;7.016;2023-05-17T11:51:14;17.40;1.00
1429;DHT22;708;51.442;7.016;2023-05-17T11:53:42;17.50;1.00
1429;DHT22;708;51.442;7.016;2023-05-17T11:56:09;17.50;1.00
1429;DHT22;708;51.442;7.016;2023-05-17T11:58:38;17.60;1.00
1429;DHT22;708;51.442;7.016;2023-05-17T12:01:05;17.70;1.00
1429;DHT22;708;51.442;7.016;2023-05-17T12:03:33;17.90;1.00
1429;DHT22;708;51.442;7.016;2023-05-17T12:06:03;18.10;1.00
1429;DHT22;708;51.442;7.016;2023-05-17T12:08:33;18.00;1.00
1429;DHT22;708;51.442;7.016;2023-05-17T12:11:00;17.70;1.00
1429;DHT22;708;51.442;7.016;2023-05-17T12:13:28;17.40;1.00
1429;DHT22;708;51.442;7.016;2023-05-17T12:15:59;17.20;1.00
1429;DHT22;708;51.442;7.016;2023-05-17T12:18:34;17.30;1.00
1429;DHT22;708;51.442;7.016;2023-05-17T12:21:02;17.60;1.00
1429;DHT22;708;51.442;7.016;2023-05-17T12:23:32;17.90;1.00
1429;DHT22;708;51.442;7.016;2023-05-17T12:26:07;18.20;1.00
1429;DHT22;708;51.442;7.016;2023-05-17T12:28:35;18.40;1.00
1429;DHT22;708;51.442;7.016;2023-05-17T12:31:06;18.40;1.00
1429;DHT22;708;51.442;7.016;2023-05-17T12:33:35;18.50;1.00
1429;DHT22;708;51.442;7.016;2023-05-17T12:36:06;18.60;1.00
1429;DHT22;708;51.442;7.016;2023-05-17T12:38:34;18.70;1.00
1429;DHT22;708;51.442;7.016;2023-05-17T12:41:02;18.90;1.00
1429;DHT22;708;51.442;7.016;2023-05-17T12:43:32;19.20;1.00
1429;DHT22;708;51.442;7.016;2023-05-17T12:46:06;19.20;1.00
1429;DHT22;708;51.442;7.016;2023-05-17T12:48:34;19.00;1.00
1429;DHT22;708;51.442;7.016;2023-05-17T12:51:08;18.90;1.00
1429;DHT22;708;51.442;7.016;2023-05-17T12:53:36;19.00;1.00
1429;DHT22;708;51.442;7.016;2023-05-17T12:56:03;19.20;1.00
1429;DHT22;708;51.442;7.016;2023-05-17T12:58:30;19.40;1.00
1429;DHT22;708;51.442;7.016;2023-05-17T13:00:58;19.50;1.00
1429;DHT22;708;51.442;7.016;2023-05-17T13:03:27;19.50;1.00
1429;DHT22;708;51.442;7.016;2023-05-17T13:05:58;19.30;1.00
1429;DHT22;708;51.442;7.016;2023-05-17T13:08:25;19.30;1.00
1429;DHT22;708;51.442;7.016;2023-05-17T13:10:52;19.60;1.00
1429;DHT22;708;51.442;7.016;2023-05-17T13:13:19;20.00;1.00
1429;DHT22;708;51.442;7.016;2023-05-17T13:15:46;20.40;1.00
1429;DHT22;708;51.442;7.016;2023-05-17T13:18:14;20.50;1.00
1429;DHT22;708;51.442;7.016;2023-05-17T13:20:42;20.50;1.00
1429;DHT22;708;51.442;7.016;2023-05-17T13:23:09;20.40;1.00
1429;DHT22;708;51.442;7.016;2023-05-17T13:25:36;20.40;1.00
1429;DHT22;708;51.442;7.016;2023-05-17T13:28:03;20.30;1.00
1429;DHT22;708;51.442;7.016;2023-05-17T13:30:29;20.30;1.00
1429;DHT22;708;51.442;7.016;2023-05-17T13:32:56;20.30;1.00
1429;DHT22;708;51.442;7.016;2023-05-17T13:35:23;20.40;1.00
1429;DHT22;708;51.442;7.016;2023-05-17T13:37:51;20.20;1.00
1429;DHT22;708;51.442;7.016;2023-05-17T13:40:18;20.00;1.00
1429;DHT22;708;51.442;7.016;2023-05-17T13:42:45;20.00;1.00
1429;DHT22;708;51.442;7.016;2023-05-17T13:45:12;20.10;1.00
1429;DHT22;708;51.442;7.016;2023-05-17T13:47:38;20.00;1.00
1429;DHT22;708;51.442;7.016;2023-05-17T13:50:06;20.00;1.00
1429;DHT22;708;51.442;7.016;2023-05-17T13:52:33;19.90;1.00
1429;DHT22;708;51.442;7.016;2023-05-17T13:55:01;19.50;1.00
1429;DHT22;708;51.442;7.016;2023-05-17T13:57:28;19.10;1.00
1429;DHT22;708;51.442;7.016;2023-05-17T13:59:55;18.70;1.00
1429;DHT22;708;51.442;7.016;2023-05-17T14:02:21;18.30;1.00
1429;DHT22;708;51.442;7.016;2023-05-17T14:04:49;18.00;1.00
1429;DHT22;708;51.442;7.016;2023-05-17T14:07:19;17.90;1.00
1429;DHT22;708;51.442;7.016;2023-05-17T14:09:46;17.70;1.00
1429;DHT22;708;51.442;7.016;2023-05-17T14:12:16;17.70;1.00
1429;DHT22;708;51.442;7.016;2023-05-17T14:14:43;17.90;1.00
1429;DHT22;708;51.442;7.016;2023-05-17T14:17:10;18.00;1.00
1429;DHT22;708;51.442;7.016;2023-05-17T14:19:37;18.20;1.00
1429;DHT22;708;51.442;7.016;2023-05-17T14:22:03;18.20;1.00
1429;DHT22;708;51.442;7.016;2023-05-17T14:24:30;18.20;1.00
1429;DHT22;708;51.442;7.016;2023-05-17T14:26:57;18.30;1.00
1429;DHT22;708;51.442;7.016;2023-05-17T14:29:25;18.20;1.00
1429;DHT22;708;51.442;7.016;2023-05-17T14:31:52;18.10;1.00
1429;DHT22;708;51.442;7.016;2023-05-17T14:34:18;18.10;1.00
1429;DHT22;708;51.442;7.016;2023-05-17T14:36:45;18.10;1.00
1429;DHT22;708;51.442;7.016;2023-05-17T14:39:12;17.90;1.00
1429;DHT22;708;51.442;7.016;2023-05-17T14:41:39;17.90;1.00
1429;DHT22;708;51.442;7.016;2023-05-17T14:44:06;17.80;1.00
1429;DHT22;708;51.442;7.016;2023-05-17T14:46:34;17.60;1.00
1429;DHT22;708;51.442;7.016;2023-05-17T14:49:01;17.60;1.00
1429;DHT22;708;51.442;7.016;2023-05-17T14:51:27;17.60;1.00
1429;DHT22;708;51.442;7.016;2023-05-17T14:53:54;17.80;1.00
1429;DHT22;708;51.442;7.016;2023-05-17T14:56:21;18.00;1.00
1429;DHT22;708;51.442;7.016;2023-05-17T14:58:48;18.30;1.00
1429;DHT22;708;51.442;7.016;2023-05-17T15:01:15;18.50;1.00
1429;DHT22;708;51.442;7.016;2023-05-17T15:03:43;18.70;1.00
1429;DHT22;708;51.442;7.016;2023-05-17T15:06:10;18.80;1.00
1429;DHT22;708;51.442;7.016;2023-05-17T15:08:37;18.90;1.00
1429;DHT22;708;51.442;7.016;2023-05-17T15:11:05;18.70;1.00
1429;DHT22;708;51.442;7.016;2023-05-17T15:13:31;18.20;1.00
1429;DHT22;708;51.442;7.016;2023-05-17T15:15:58;18.10;1.00
1429;DHT22;708;51.442;7.016;2023-05-17T15:18:25;18.20;1.00
1429;DHT22;708;51.442;7.016;2023-05-17T15:20:53;18.30;1.00
1429;DHT22;708;51.442;7.016;2023-05-17T15:23:20;18.30;1.00
1429;DHT22;708;51.442;7.016;2023-05-17T15:25:47;18.30;1.00
1429;DHT22;708;51.442;7.016;2023-05-17T15:28:13;18.20;1.00
1429;DHT22;708;51.442;7.016;2023-05-17T15:30:40;18.20;1.00
1429;DHT22;708;51.442;7.016;2023-05-17T15:33:07;18.10;1.00
1429;DHT22;708;51.442;7.016;2023-05-17T15:35:34;18.10;1.00
1429;DHT22;708;51.442;7.016;2023-05-17T15:38:04;18.20;1.00
1429;DHT22;708;51.442;7.016;2023-05-17T15:40:31;18.40;1.00
1429;DHT22;708;51.442;7.016;2023-05-17T15:42:58;18.60;1.00
1429;DHT22;708;51.442;7.016;2023-05-17T15:45:25;18.70;1.00
1429;DHT22;708;51.442;7.016;2023-05-17T15:47:52;18.70;1.00
1429;DHT22;708;51.442;7.016;2023-05-17T15:50:20;18.80;1.00
1429;DHT22;708;51.442;7.016;2023-05-17T15:52:47;18.70;1.00
1429;DHT22;708;51.442;7.016;2023-05-17T15:55:15;18.70;1.00
1429;DHT22;708;51.442;7.016;2023-05-17T15:57:42;18.50;1.00
1429;DHT22;708;51.442;7.016;2023-05-17T16:00:10;18.50;1.00
1429;DHT22;708;51.442;7.016;2023-05-17T16:02:37;18.50;1.00
1429;DHT22;708;51.442;7.016;2023-05-17T16:05:04;18.40;1.00
1429;DHT22;708;51.442;7.016;2023-05-17T16:07:31;18.10;1.00
1429;DHT22;708;51.442;7.016;2023-05-17T16:09:58;18.00;1.00
1429;DHT22;708;51.442;7.016;2023-05-17T16:12:26;17.90;1.00
1429;DHT22;708;51.442;7.016;2023-05-17T16:14:53;17.80;1.00
1429;DHT22;708;51.442;7.016;2023-05-17T16:17:20;17.80;1.00
1429;DHT22;708;51.442;7.016;2023-05-17T16:19:47;17.50;1.00
1429;DHT22;708;51.442;7.016;2023-05-17T16:22:14;17.20;1.00
1429;DHT22;708;51.442;7.016;2023-05-17T16:24:40;16.80;1.00
1429;DHT22;708;51.442;7.016;2023-05-17T16:27:07;16.70;1.00
1429;DHT22;708;51.442;7.016;2023-05-17T16:29:36;16.70;1.00
1429;DHT22;708;51.442;7.016;2023-05-17T16:32:05;16.60;1.00
1429;DHT22;708;51.442;7.016;2023-05-17T16:34:32;16.40;1.00
1429;DHT22;708;51.442;7.016;2023-05-17T16:36:58;16.30;1.00
1429;DHT22;708;51.442;7.016;2023-05-17T16:39:25;16.10;1.00
1429;DHT22;708;51.442;7.016;2023-05-17T16:41:53;16.00;1.00
1429;DHT22;708;51.442;7.016;2023-05-17T16:44:20;15.90;1.30